sensor_id;sensor_type;location;lat;lon;timestamp;P1;durP1;ratioP1;P2;durP2;ratioP2
60917;SDS011;46792;38.854;-9.384;2023-10-31T00:01:23;20.67;;;5.25;;
60917;SDS011;46792;38.854;-9.384;2023-10-31T00:03:24;15.80;;;4.68;;
60917;SDS011;46792;38.854;-9.384;2023-10-31T00:05:24;15.73;;;4.68;;
60917;SDS011;46792;38.854;-9.384;2023-10-31T00:07:25;24.83;;;4.07;;
60917;SDS011;46792;38.854;-9.384;2023-10-31T00:09:26;19.55;;;4.20;;
60917;SDS011;46792;38.854;-9.384;2023-10-31T00:11:26;16.55;;;4.55;;
60917;SDS011;46792;38.854;-9.384;2023-10-31T00:13:27;11.80;;;3.88;;
60917;SDS011;46792;38.854;-9.384;2023-10-31T00:15:27;21.67;;;6.57;;
60917;SDS011;46792;38.854;-9.384;2023-10-31T00:17:30;17.35;;;5.45;;
60917;SDS011;46792;38.854;-9.384;2023-10-31T00:19:31;12.25;;;4.32;;
60917;SDS011;46792;38.854;-9.384;2023-10-31T00:21:31;23.73;;;4.47;;
60917;SDS011;46792;38.854;-9.384;2023-10-31T00:23:32;20.48;;;6.18;;
60917;SDS011;46792;38.854;-9.384;2023-10-31T00:25:33;16.00;;;5.28;;
60917;SDS011;46792;38.854;-9.384;2023-10-31T00:27:33;18.58;;;6.28;;
60917;SDS011;46792;38.854;-9.384;2023-10-31T00:29:34;16.88;;;5.32;;
60917;SDS011;46792;38.854;-9.384;2023-10-31T00:31:35;17.27;;;4.88;;
60917;SDS011;46792;38.854;-9.384;2023-10-31T00:33:35;17.38;;;4.80;;
60917;SDS011;46792;38.854;-9.384;2023-10-31T00:35:37;21.70;;;5.18;;
60917;SDS011;46792;38.854;-9.384;2023-10-31T00:37:38;19.83;;;5.40;;
60917;SDS011;46792;38.854;-9.384;2023-10-31T00:39:39;14.70;;;4.95;;
60917;SDS011;46792;38.854;-9.384;2023-10-31T00:41:43;11.02;;;4.28;;
60917;SDS011;46792;38.854;-9.384;2023-10-31T00:43:47;14.35;;;5.15;;
60917;SDS011;46792;38.854;-9.384;2023-10-31T00:45:48;7.85;;;4.03;;
60917;SDS011;46792;38.854;-9.384;2023-10-31T00:47:48;16.75;;;4.25;;
60917;SDS011;46792;38.854;-9.384;2023-10-31T00:49:49;17.58;;;5.93;;
60917;SDS011;46792;38.854;-9.384;2023-10-31T00:51:50;19.13;;;5.40;;
60917;SDS011;46792;38.854;-9.384;2023-10-31T00:53:50;14.13;;;4.90;;
60917;SDS011;46792;38.854;-9.384;2023-10-31T00:55:51;14.25;;;5.32;;
60917;SDS011;46792;38.854;-9.384;2023-10-31T00:57:52;20.63;;;5.20;;
60917;SDS011;46792;38.854;-9.384;2023-10-31T00:59:52;21.85;;;4.47;;
60917;SDS011;46792;38.854;-9.384;2023-10-31T01:01:53;13.48;;;4.20;;
60917;SDS011;46792;38.854;-9.384;2023-10-31T01:03:54;11.43;;;4.65;;
60917;SDS011;46792;38.854;-9.384;2023-10-31T01:05:54;14.52;;;3.50;;
60917;SDS011;46792;38.854;-9.384;2023-10-31T01:07:55;12.13;;;3.58;;
60917;SDS011;46792;38.854;-9.384;2023-10-31T01:09:56;15.25;;;4.50;;
60917;SDS011;46792;38.854;-9.384;2023-10-31T01:11:56;12.70;;;4.13;;
60917;SDS011;46792;38.854;-9.384;2023-10-31T01:13:57;9.45;;;3.85;;
60917;SDS011;46792;38.854;-9.384;2023-10-31T01:15:57;21.23;;;4.15;;
60917;SDS011;46792;38.854;-9.384;2023-10-31T01:17:58;15.65;;;4.22;;
60917;SDS011;46792;38.854;-9.384;2023-10-31T01:19:59;10.27;;;3.53;;
60917;SDS011;46792;38.854;-9.384;2023-10-31T01:21:59;14.65;;;3.92;;
60917;SDS011;46792;38.854;-9.384;2023-10-31T01:24:00;8.73;;;3.47;;
60917;SDS011;46792;38.854;-9.384;2023-10-31T01:26:01;19.67;;;4.20;;
60917;SDS011;46792;38.854;-9.384;2023-10-31T01:28:02;12.93;;;3.83;;
60917;SDS011;46792;38.854;-9.384;2023-10-31T01:30:03;11.85;;;3.33;;
60917;SDS011;46792;38.854;-9.384;2023-10-31T01:32:04;17.75;;;3.78;;
60917;SDS011;46792;38.854;-9.384;2023-10-31T01:34:05;9.07;;;3.70;;
60917;SDS011;46792;38.854;-9.384;2023-10-31T01:36:06;11.57;;;3.60;;
60917;SDS011;46792;38.854;-9.384;2023-10-31T01:38:07;15.38;;;3.90;;
60917;SDS011;46792;38.854;-9.384;2023-10-31T01:40:07;10.70;;;4.30;;
60917;SDS011;46792;38.854;-9.384;2023-10-31T01:42:14;17.83;;;4.32;;
60917;SDS011;46792;38.854;-9.384;2023-10-31T01:44:15;18.42;;;3.90;;
60917;SDS011;46792;38.854;-9.384;2023-10-31T01:46:16;9.90;;;3.70;;
60917;SDS011;46792;38.854;-9.384;2023-10-31T01:48:16;12.25;;;3.65;;
60917;SDS011;46792;38.854;-9.384;2023-10-31T01:50:19;25.27;;;5.45;;
60917;SDS011;46792;38.854;-9.384;2023-10-31T01:52:20;14.98;;;3.60;;
60917;SDS011;46792;38.854;-9.384;2023-10-31T01:54:21;17.42;;;3.85;;
60917;SDS011;46792;38.854;-9.384;2023-10-31T01:56:22;12.52;;;4.75;;
60917;SDS011;46792;38.854;-9.384;2023-10-31T01:58:25;11.07;;;3.70;;
60917;SDS011;46792;38.854;-9.384;2023-10-31T02:00:29;17.83;;;4.45;;
60917;SDS011;46792;38.854;-9.384;2023-10-31T02:02:29;24.30;;;5.95;;
60917;SDS011;46792;38.854;-9.384;2023-10-31T02:04:33;15.45;;;4.05;;
60917;SDS011;46792;38.854;-9.384;2023-10-31T02:06:34;18.67;;;5.78;;
60917;SDS011;46792;38.854;-9.384;2023-10-31T02:08:35;15.52;;;6.10;;
60917;SDS011;46792;38.854;-9.384;2023-10-31T02:10:36;14.82;;;4.28;;
60917;SDS011;46792;38.854;-9.384;2023-10-31T02:12:36;10.95;;;3.83;;
60917;SDS011;46792;38.854;-9.384;2023-10-31T02:14:38;13.93;;;3.80;;
60917;SDS011;46792;38.854;-9.384;2023-10-31T02:16:38;13.10;;;4.20;;
60917;SDS011;46792;38.854;-9.384;2023-10-31T02:18:39;12.75;;;4.18;;
60917;SDS011;46792;38.854;-9.384;2023-10-31T02:20:40;24.45;;;5.95;;
60917;SDS011;46792;38.854;-9.384;2023-10-31T02:22:41;12.50;;;4.10;;
60917;SDS011;46792;38.854;-9.384;2023-10-31T02:24:42;10.82;;;3.72;;
60917;SDS011;46792;38.854;-9.384;2023-10-31T02:26:42;12.88;;;3.20;;
60917;SDS011;46792;38.854;-9.384;2023-10-31T02:28:43;15.57;;;3.72;;
60917;SDS011;46792;38.854;-9.384;2023-10-31T02:30:44;14.48;;;3.38;;
60917;SDS011;46792;38.854;-9.384;2023-10-31T02:32:45;13.55;;;3.33;;
60917;SDS011;46792;38.854;-9.384;2023-10-31T02:34:46;14.60;;;3.83;;
60917;SDS011;46792;38.854;-9.384;2023-10-31T02:36:46;12.88;;;3.20;;
60917;SDS011;46792;38.854;-9.384;2023-10-31T02:38:47;13.07;;;3.60;;
60917;SDS011;46792;38.854;-9.384;2023-10-31T02:40:48;7.43;;;2.85;;
60917;SDS011;46792;38.854;-9.384;2023-10-31T02:42:49;9.80;;;3.30;;
60917;SDS011;46792;38.854;-9.384;2023-10-31T02:44:50;9.48;;;3.40;;
60917;SDS011;46792;38.854;-9.384;2023-10-31T02:46:50;15.60;;;3.80;;
60917;SDS011;46792;38.854;-9.384;2023-10-31T02:48:51;15.48;;;3.58;;
60917;SDS011;46792;38.854;-9.384;2023-10-31T02:50:52;10.75;;;3.22;;
60917;SDS011;46792;38.854;-9.384;2023-10-31T02:52:52;10.65;;;2.83;;
60917;SDS011;46792;38.854;-9.384;2023-10-31T02:54:53;9.82;;;2.95;;
60917;SDS011;46792;38.854;-9.384;2023-10-31T02:56:54;11.10;;;2.85;;
60917;SDS011;46792;38.854;-9.384;2023-10-31T02:58:54;18.17;;;3.40;;
60917;SDS011;46792;38.854;-9.384;2023-10-31T03:00:55;14.95;;;3.85;;
60917;SDS011;46792;38.854;-9.384;2023-10-31T03:02:55;11.88;;;3.00;;
60917;SDS011;46792;38.854;-9.384;2023-10-31T03:04:56;19.98;;;5.55;;
60917;SDS011;46792;38.854;-9.384;2023-10-31T03:06:57;11.45;;;3.95;;
60917;SDS011;46792;38.854;-9.384;2023-10-31T03:08:58;12.95;;;3.28;;
60917;SDS011;46792;38.854;-9.384;2023-10-31T03:10:59;12.00;;;3.00;;
60917;SDS011;46792;38.854;-9.384;2023-10-31T03:12:59;8.23;;;2.80;;
60917;SDS011;46792;38.854;-9.384;2023-10-31T03:15:00;11.10;;;3.10;;
60917;SDS011;46792;38.854;-9.384;2023-10-31T03:17:00;11.60;;;3.55;;
60917;SDS011;46792;38.854;-9.384;2023-10-31T03:19:01;16.92;;;4.60;;
60917;SDS011;46792;38.854;-9.384;2023-10-31T03:21:02;10.60;;;3.20;;
60917;SDS011;46792;38.854;-9.384;2023-10-31T03:23:03;14.98;;;3.33;;
60917;SDS011;46792;38.854;-9.384;2023-10-31T03:25:06;18.42;;;3.22;;
60917;SDS011;46792;38.854;-9.384;2023-10-31T03:27:06;11.63;;;2.92;;
60917;SDS011;46792;38.854;-9.384;2023-10-31T03:29:07;12.30;;;3.35;;
60917;SDS011;46792;38.854;-9.384;2023-10-31T03:31:08;18.85;;;3.45;;
60917;SDS011;46792;38.854;-9.384;2023-10-31T03:33:12;11.32;;;3.35;;
60917;SDS011;46792;38.854;-9.384;2023-10-31T03:35:13;13.00;;;3.22;;
60917;SDS011;46792;38.854;-9.384;2023-10-31T03:37:13;18.25;;;3.83;;
60917;SDS011;46792;38.854;-9.384;2023-10-31T03:39:15;10.10;;;3.25;;
60917;SDS011;46792;38.854;-9.384;2023-10-31T03:41:16;17.23;;;3.97;;
60917;SDS011;46792;38.854;-9.384;2023-10-31T03:43:16;7.72;;;3.00;;
60917;SDS011;46792;38.854;-9.384;2023-10-31T03:45:17;19.15;;;4.15;;
60917;SDS011;46792;38.854;-9.384;2023-10-31T03:47:18;15.82;;;3.58;;
60917;SDS011;46792;38.854;-9.384;2023-10-31T03:49:19;11.75;;;3.33;;
60917;SDS011;46792;38.854;-9.384;2023-10-31T03:51:20;11.52;;;3.45;;
60917;SDS011;46792;38.854;-9.384;2023-10-31T03:53:20;10.63;;;2.80;;
60917;SDS011;46792;38.854;-9.384;2023-10-31T03:55:21;8.40;;;3.08;;
60917;SDS011;46792;38.854;-9.384;2023-10-31T03:57:21;10.35;;;2.80;;
60917;SDS011;46792;38.854;-9.384;2023-10-31T03:59:22;15.18;;;3.00;;
60917;SDS011;46792;38.854;-9.384;2023-10-31T04:01:23;16.23;;;3.50;;
60917;SDS011;46792;38.854;-9.384;2023-10-31T04:03:24;11.13;;;3.83;;
60917;SDS011;46792;38.854;-9.384;2023-10-31T04:05:24;9.93;;;3.13;;
60917;SDS011;46792;38.854;-9.384;2023-10-31T04:07:25;18.17;;;3.80;;
60917;SDS011;46792;38.854;-9.384;2023-10-31T04:09:26;14.38;;;3.10;;
60917;SDS011;46792;38.854;-9.384;2023-10-31T04:11:26;12.15;;;3.38;;
60917;SDS011;46792;38.854;-9.384;2023-10-31T04:13:27;18.77;;;3.65;;
60917;SDS011;46792;38.854;-9.384;2023-10-31T04:15:28;12.18;;;3.08;;
60917;SDS011;46792;38.854;-9.384;2023-10-31T04:17:29;16.20;;;3.17;;
60917;SDS011;46792;38.854;-9.384;2023-10-31T04:19:29;13.07;;;3.30;;
60917;SDS011;46792;38.854;-9.384;2023-10-31T04:21:30;13.57;;;3.78;;
60917;SDS011;46792;38.854;-9.384;2023-10-31T04:23:31;13.65;;;2.85;;
60917;SDS011;46792;38.854;-9.384;2023-10-31T04:25:31;17.23;;;3.75;;
60917;SDS011;46792;38.854;-9.384;2023-10-31T04:27:32;14.88;;;3.22;;
60917;SDS011;46792;38.854;-9.384;2023-10-31T04:29:33;14.80;;;4.20;;
60917;SDS011;46792;38.854;-9.384;2023-10-31T04:31:33;10.48;;;3.53;;
60917;SDS011;46792;38.854;-9.384;2023-10-31T04:33:34;27.60;;;6.40;;
60917;SDS011;46792;38.854;-9.384;2023-10-31T04:35:34;16.45;;;3.58;;
60917;SDS011;46792;38.854;-9.384;2023-10-31T04:37:35;17.55;;;3.55;;
60917;SDS011;46792;38.854;-9.384;2023-10-31T04:39:36;14.90;;;3.40;;
60917;SDS011;46792;38.854;-9.384;2023-10-31T04:41:36;22.20;;;4.75;;
60917;SDS011;46792;38.854;-9.384;2023-10-31T04:43:37;14.68;;;3.53;;
60917;SDS011;46792;38.854;-9.384;2023-10-31T04:45:38;16.25;;;5.50;;
60917;SDS011;46792;38.854;-9.384;2023-10-31T04:47:38;14.18;;;3.95;;
60917;SDS011;46792;38.854;-9.384;2023-10-31T04:49:39;18.33;;;3.90;;
60917;SDS011;46792;38.854;-9.384;2023-10-31T04:51:40;12.68;;;3.97;;
60917;SDS011;46792;38.854;-9.384;2023-10-31T04:53:40;11.73;;;3.92;;
60917;SDS011;46792;38.854;-9.384;2023-10-31T04:55:41;18.65;;;3.58;;
60917;SDS011;46792;38.854;-9.384;2023-10-31T04:57:41;12.43;;;3.90;;
60917;SDS011;46792;38.854;-9.384;2023-10-31T04:59:42;18.10;;;4.32;;
60917;SDS011;46792;38.854;-9.384;2023-10-31T05:01:47;19.05;;;4.70;;
60917;SDS011;46792;38.854;-9.384;2023-10-31T05:03:49;18.58;;;4.63;;
60917;SDS011;46792;38.854;-9.384;2023-10-31T05:05:50;20.63;;;3.50;;
60917;SDS011;46792;38.854;-9.384;2023-10-31T05:07:51;17.88;;;3.85;;
60917;SDS011;46792;38.854;-9.384;2023-10-31T05:09:51;22.23;;;4.28;;
60917;SDS011;46792;38.854;-9.384;2023-10-31T05:11:52;13.77;;;3.97;;
60917;SDS011;46792;38.854;-9.384;2023-10-31T05:13:52;18.90;;;3.97;;
60917;SDS011;46792;38.854;-9.384;2023-10-31T05:15:53;22.70;;;4.10;;
60917;SDS011;46792;38.854;-9.384;2023-10-31T05:17:54;15.70;;;3.75;;
60917;SDS011;46792;38.854;-9.384;2023-10-31T05:19:55;17.40;;;3.63;;
60917;SDS011;46792;38.854;-9.384;2023-10-31T05:21:55;21.65;;;4.10;;
60917;SDS011;46792;38.854;-9.384;2023-10-31T05:23:56;18.02;;;5.22;;
60917;SDS011;46792;38.854;-9.384;2023-10-31T05:25:56;13.25;;;4.20;;
60917;SDS011;46792;38.854;-9.384;2023-10-31T05:27:57;11.68;;;4.03;;
60917;SDS011;46792;38.854;-9.384;2023-10-31T05:29:58;15.20;;;4.18;;
60917;SDS011;46792;38.854;-9.384;2023-10-31T05:31:59;20.13;;;4.13;;
60917;SDS011;46792;38.854;-9.384;2023-10-31T05:34:01;11.98;;;3.58;;
60917;SDS011;46792;38.854;-9.384;2023-10-31T05:36:02;20.38;;;4.00;;
60917;SDS011;46792;38.854;-9.384;2023-10-31T05:38:02;15.55;;;3.85;;
60917;SDS011;46792;38.854;-9.384;2023-10-31T05:40:03;17.00;;;3.75;;
60917;SDS011;46792;38.854;-9.384;2023-10-31T05:42:04;12.27;;;3.55;;
60917;SDS011;46792;38.854;-9.384;2023-10-31T05:44:05;23.45;;;4.28;;
60917;SDS011;46792;38.854;-9.384;2023-10-31T05:46:06;12.88;;;4.30;;
60917;SDS011;46792;38.854;-9.384;2023-10-31T05:48:06;17.45;;;3.72;;
60917;SDS011;46792;38.854;-9.384;2023-10-31T05:50:07;14.30;;;3.65;;
60917;SDS011;46792;38.854;-9.384;2023-10-31T05:52:11;16.58;;;3.78;;
60917;SDS011;46792;38.854;-9.384;2023-10-31T05:54:12;21.77;;;4.22;;
60917;SDS011;46792;38.854;-9.384;2023-10-31T05:56:13;8.55;;;3.17;;
60917;SDS011;46792;38.854;-9.384;2023-10-31T05:58:15;11.65;;;3.95;;
60917;SDS011;46792;38.854;-9.384;2023-10-31T06:00:15;7.88;;;3.67;;
60917;SDS011;46792;38.854;-9.384;2023-10-31T06:02:16;18.35;;;3.20;;
60917;SDS011;46792;38.854;-9.384;2023-10-31T06:04:17;17.70;;;4.18;;
60917;SDS011;46792;38.854;-9.384;2023-10-31T06:06:17;19.30;;;4.28;;
60917;SDS011;46792;38.854;-9.384;2023-10-31T06:08:18;14.38;;;3.78;;
60917;SDS011;46792;38.854;-9.384;2023-10-31T06:10:19;23.25;;;4.43;;
60917;SDS011;46792;38.854;-9.384;2023-10-31T06:12:20;18.77;;;3.72;;
60917;SDS011;46792;38.854;-9.384;2023-10-31T06:14:21;14.85;;;3.38;;
60917;SDS011;46792;38.854;-9.384;2023-10-31T06:16:21;21.63;;;4.53;;
60917;SDS011;46792;38.854;-9.384;2023-10-31T06:18:22;11.35;;;3.25;;
60917;SDS011;46792;38.854;-9.384;2023-10-31T06:20:23;12.93;;;3.75;;
60917;SDS011;46792;38.854;-9.384;2023-10-31T06:22:24;21.63;;;4.03;;
60917;SDS011;46792;38.854;-9.384;2023-10-31T06:24:24;11.32;;;3.05;;
60917;SDS011;46792;38.854;-9.384;2023-10-31T06:26:25;15.85;;;3.35;;
60917;SDS011;46792;38.854;-9.384;2023-10-31T06:28:25;16.65;;;4.35;;
60917;SDS011;46792;38.854;-9.384;2023-10-31T06:30:26;16.80;;;3.92;;
60917;SDS011;46792;38.854;-9.384;2023-10-31T06:32:27;11.25;;;3.22;;
60917;SDS011;46792;38.854;-9.384;2023-10-31T06:34:27;11.48;;;4.00;;
60917;SDS011;46792;38.854;-9.384;2023-10-31T06:36:28;12.35;;;3.35;;
60917;SDS011;46792;38.854;-9.384;2023-10-31T06:38:28;16.10;;;5.25;;
60917;SDS011;46792;38.854;-9.384;2023-10-31T06:40:29;12.90;;;4.22;;
60917;SDS011;46792;38.854;-9.384;2023-10-31T06:42:30;16.40;;;3.78;;
60917;SDS011;46792;38.854;-9.384;2023-10-31T06:44:30;12.32;;;3.40;;
60917;SDS011;46792;38.854;-9.384;2023-10-31T06:46:31;14.32;;;5.78;;
60917;SDS011;46792;38.854;-9.384;2023-10-31T06:48:32;11.90;;;3.25;;
60917;SDS011;46792;38.854;-9.384;2023-10-31T06:50:33;18.20;;;3.95;;
60917;SDS011;46792;38.854;-9.384;2023-10-31T06:52:33;9.60;;;3.88;;
60917;SDS011;46792;38.854;-9.384;2023-10-31T06:54:34;15.90;;;3.58;;
60917;SDS011;46792;38.854;-9.384;2023-10-31T06:56:37;15.57;;;4.00;;
60917;SDS011;46792;38.854;-9.384;2023-10-31T06:58:37;13.05;;;3.60;;
60917;SDS011;46792;38.854;-9.384;2023-10-31T07:00:38;20.10;;;5.05;;
60917;SDS011;46792;38.854;-9.384;2023-10-31T07:02:39;8.35;;;3.05;;
60917;SDS011;46792;38.854;-9.384;2023-10-31T07:04:40;13.52;;;3.67;;
60917;SDS011;46792;38.854;-9.384;2023-10-31T07:06:40;8.93;;;3.30;;
60917;SDS011;46792;38.854;-9.384;2023-10-31T07:08:41;12.60;;;4.07;;
60917;SDS011;46792;38.854;-9.384;2023-10-31T07:10:41;10.38;;;2.83;;
60917;SDS011;46792;38.854;-9.384;2023-10-31T07:12:42;23.95;;;4.55;;
60917;SDS011;46792;38.854;-9.384;2023-10-31T07:14:43;15.75;;;3.88;;
60917;SDS011;46792;38.854;-9.384;2023-10-31T07:16:43;10.20;;;2.83;;
60917;SDS011;46792;38.854;-9.384;2023-10-31T07:18:44;21.90;;;5.47;;
60917;SDS011;46792;38.854;-9.384;2023-10-31T07:20:45;10.18;;;3.35;;
60917;SDS011;46792;38.854;-9.384;2023-10-31T07:22:45;14.38;;;3.95;;
60917;SDS011;46792;38.854;-9.384;2023-10-31T07:24:46;18.45;;;4.00;;
60917;SDS011;46792;38.854;-9.384;2023-10-31T07:26:47;20.40;;;4.25;;
60917;SDS011;46792;38.854;-9.384;2023-10-31T07:28:47;11.40;;;2.92;;
60917;SDS011;46792;38.854;-9.384;2023-10-31T07:30:48;22.05;;;5.63;;
60917;SDS011;46792;38.854;-9.384;2023-10-31T07:32:50;7.38;;;3.00;;
60917;SDS011;46792;38.854;-9.384;2023-10-31T07:34:51;8.98;;;3.33;;
60917;SDS011;46792;38.854;-9.384;2023-10-31T07:36:52;8.98;;;3.28;;
60917;SDS011;46792;38.854;-9.384;2023-10-31T07:38:53;10.60;;;2.70;;
60917;SDS011;46792;38.854;-9.384;2023-10-31T07:40:53;15.50;;;3.30;;
60917;SDS011;46792;38.854;-9.384;2023-10-31T07:42:54;13.02;;;3.58;;
60917;SDS011;46792;38.854;-9.384;2023-10-31T07:44:55;13.63;;;3.25;;
60917;SDS011;46792;38.854;-9.384;2023-10-31T07:46:56;16.92;;;4.57;;
60917;SDS011;46792;38.854;-9.384;2023-10-31T07:48:56;13.25;;;2.75;;
60917;SDS011;46792;38.854;-9.384;2023-10-31T07:50:57;11.20;;;3.67;;
60917;SDS011;46792;38.854;-9.384;2023-10-31T07:52:58;14.70;;;2.70;;
60917;SDS011;46792;38.854;-9.384;2023-10-31T07:54:58;16.05;;;3.33;;
60917;SDS011;46792;38.854;-9.384;2023-10-31T07:56:59;22.65;;;3.67;;
60917;SDS011;46792;38.854;-9.384;2023-10-31T07:58:59;16.52;;;3.25;;
60917;SDS011;46792;38.854;-9.384;2023-10-31T08:01:00;7.20;;;2.92;;
60917;SDS011;46792;38.854;-9.384;2023-10-31T08:03:01;16.15;;;3.42;;
60917;SDS011;46792;38.854;-9.384;2023-10-31T08:05:02;13.73;;;3.10;;
60917;SDS011;46792;38.854;-9.384;2023-10-31T08:07:03;15.82;;;2.72;;
60917;SDS011;46792;38.854;-9.384;2023-10-31T08:09:04;7.05;;;2.15;;
60917;SDS011;46792;38.854;-9.384;2023-10-31T08:11:08;17.52;;;2.50;;
60917;SDS011;46792;38.854;-9.384;2023-10-31T08:15:10;7.93;;;2.35;;
60917;SDS011;46792;38.854;-9.384;2023-10-31T08:17:11;20.35;;;4.35;;
60917;SDS011;46792;38.854;-9.384;2023-10-31T08:19:11;18.83;;;2.78;;
60917;SDS011;46792;38.854;-9.384;2023-10-31T08:21:12;11.05;;;2.55;;
60917;SDS011;46792;38.854;-9.384;2023-10-31T08:23:13;14.80;;;3.13;;
60917;SDS011;46792;38.854;-9.384;2023-10-31T08:25:14;9.45;;;2.28;;
60917;SDS011;46792;38.854;-9.384;2023-10-31T08:27:15;6.18;;;2.50;;
60917;SDS011;46792;38.854;-9.384;2023-10-31T08:29:15;7.13;;;2.67;;
60917;SDS011;46792;38.854;-9.384;2023-10-31T08:31:16;21.42;;;3.17;;
60917;SDS011;46792;38.854;-9.384;2023-10-31T08:33:17;13.63;;;3.70;;
60917;SDS011;46792;38.854;-9.384;2023-10-31T08:35:18;10.32;;;2.60;;
60917;SDS011;46792;38.854;-9.384;2023-10-31T08:37:18;13.95;;;2.72;;
60917;SDS011;46792;38.854;-9.384;2023-10-31T08:39:19;14.25;;;2.60;;
60917;SDS011;46792;38.854;-9.384;2023-10-31T08:41:20;15.75;;;5.60;;
60917;SDS011;46792;38.854;-9.384;2023-10-31T08:43:21;15.85;;;2.80;;
60917;SDS011;46792;38.854;-9.384;2023-10-31T08:45:22;10.32;;;2.47;;
60917;SDS011;46792;38.854;-9.384;2023-10-31T08:47:22;10.13;;;3.05;;
60917;SDS011;46792;38.854;-9.384;2023-10-31T08:49:23;9.50;;;3.80;;
60917;SDS011;46792;38.854;-9.384;2023-10-31T08:51:24;11.73;;;3.80;;
60917;SDS011;46792;38.854;-9.384;2023-10-31T08:53:24;19.98;;;2.80;;
60917;SDS011;46792;38.854;-9.384;2023-10-31T08:55:25;16.05;;;3.35;;
60917;SDS011;46792;38.854;-9.384;2023-10-31T08:57:26;10.73;;;2.50;;
60917;SDS011;46792;38.854;-9.384;2023-10-31T08:59:27;11.27;;;2.78;;
60917;SDS011;46792;38.854;-9.384;2023-10-31T09:01:29;10.10;;;2.83;;
60917;SDS011;46792;38.854;-9.384;2023-10-31T09:03:30;11.45;;;2.92;;
60917;SDS011;46792;38.854;-9.384;2023-10-31T09:05:31;11.02;;;3.20;;
60917;SDS011;46792;38.854;-9.384;2023-10-31T09:07:31;11.82;;;2.90;;
60917;SDS011;46792;38.854;-9.384;2023-10-31T09:09:32;19.83;;;3.60;;
60917;SDS011;46792;38.854;-9.384;2023-10-31T09:11:33;11.75;;;3.50;;
60917;SDS011;46792;38.854;-9.384;2023-10-31T09:13:34;13.25;;;2.92;;
60917;SDS011;46792;38.854;-9.384;2023-10-31T09:15:34;17.75;;;4.05;;
60917;SDS011;46792;38.854;-9.384;2023-10-31T09:17:36;19.92;;;5.43;;
60917;SDS011;46792;38.854;-9.384;2023-10-31T09:19:37;17.42;;;4.45;;
60917;SDS011;46792;38.854;-9.384;2023-10-31T09:21:38;20.08;;;4.30;;
60917;SDS011;46792;38.854;-9.384;2023-10-31T09:23:39;23.77;;;4.88;;
60917;SDS011;46792;38.854;-9.384;2023-10-31T09:25:39;15.75;;;4.93;;
60917;SDS011;46792;38.854;-9.384;2023-10-31T09:27:40;9.48;;;3.63;;
60917;SDS011;46792;38.854;-9.384;2023-10-31T09:29:42;19.40;;;3.90;;
60917;SDS011;46792;38.854;-9.384;2023-10-31T09:31:43;17.27;;;3.25;;
60917;SDS011;46792;38.854;-9.384;2023-10-31T09:33:47;24.65;;;3.90;;
60917;SDS011;46792;38.854;-9.384;2023-10-31T09:35:48;14.97;;;3.93;;
60917;SDS011;46792;38.854;-9.384;2023-10-31T09:37:49;13.02;;;4.45;;
60917;SDS011;46792;38.854;-9.384;2023-10-31T09:39:49;14.68;;;4.43;;
60917;SDS011;46792;38.854;-9.384;2023-10-31T09:41:50;14.63;;;4.10;;
60917;SDS011;46792;38.854;-9.384;2023-10-31T09:43:51;31.80;;;15.38;;
60917;SDS011;46792;38.854;-9.384;2023-10-31T09:45:52;86.82;;;40.08;;
60917;SDS011;46792;38.854;-9.384;2023-10-31T09:47:52;63.65;;;24.92;;
60917;SDS011;46792;38.854;-9.384;2023-10-31T09:49:54;52.90;;;17.65;;
60917;SDS011;46792;38.854;-9.384;2023-10-31T09:51:54;14.90;;;6.07;;
60917;SDS011;46792;38.854;-9.384;2023-10-31T09:53:55;16.42;;;6.03;;
60917;SDS011;46792;38.854;-9.384;2023-10-31T09:55:57;10.93;;;3.10;;
60917;SDS011;46792;38.854;-9.384;2023-10-31T09:57:58;13.95;;;3.45;;
60917;SDS011;46792;38.854;-9.384;2023-10-31T10:00:00;19.13;;;4.32;;
60917;SDS011;46792;38.854;-9.384;2023-10-31T10:02:01;22.38;;;4.75;;
60917;SDS011;46792;38.854;-9.384;2023-10-31T10:04:02;16.33;;;4.72;;
60917;SDS011;46792;38.854;-9.384;2023-10-31T10:06:02;17.25;;;6.47;;
60917;SDS011;46792;38.854;-9.384;2023-10-31T10:08:04;12.38;;;6.25;;
60917;SDS011;46792;38.854;-9.384;2023-10-31T10:10:05;17.90;;;4.60;;
60917;SDS011;46792;38.854;-9.384;2023-10-31T10:14:13;17.27;;;5.55;;
60917;SDS011;46792;38.854;-9.384;2023-10-31T10:16:27;28.98;;;8.55;;
60917;SDS011;46792;38.854;-9.384;2023-10-31T10:18:32;16.20;;;7.82;;
60917;SDS011;46792;38.854;-9.384;2023-10-31T10:20:53;32.35;;;10.25;;
60917;SDS011;46792;38.854;-9.384;2023-10-31T10:23:05;27.42;;;9.27;;
60917;SDS011;46792;38.854;-9.384;2023-10-31T10:25:06;25.95;;;7.45;;
60917;SDS011;46792;38.854;-9.384;2023-10-31T10:27:08;18.33;;;6.82;;
60917;SDS011;46792;38.854;-9.384;2023-10-31T10:29:09;16.77;;;6.45;;
60917;SDS011;46792;38.854;-9.384;2023-10-31T10:31:13;16.90;;;5.25;;
60917;SDS011;46792;38.854;-9.384;2023-10-31T10:33:15;26.52;;;6.25;;
60917;SDS011;46792;38.854;-9.384;2023-10-31T10:35:16;23.02;;;5.85;;
60917;SDS011;46792;38.854;-9.384;2023-10-31T10:37:17;19.75;;;5.07;;
60917;SDS011;46792;38.854;-9.384;2023-10-31T10:39:19;16.75;;;5.32;;
60917;SDS011;46792;38.854;-9.384;2023-10-31T10:41:21;17.73;;;6.05;;
60917;SDS011;46792;38.854;-9.384;2023-10-31T10:43:25;16.25;;;7.22;;
60917;SDS011;46792;38.854;-9.384;2023-10-31T10:45:27;23.30;;;7.68;;
60917;SDS011;46792;38.854;-9.384;2023-10-31T10:47:28;19.20;;;6.10;;
60917;SDS011;46792;38.854;-9.384;2023-10-31T10:51:40;23.90;;;7.00;;
60917;SDS011;46792;38.854;-9.384;2023-10-31T10:54:05;32.28;;;10.15;;
60917;SDS011;46792;38.854;-9.384;2023-10-31T10:56:37;43.03;;;15.95;;
60917;SDS011;46792;38.854;-9.384;2023-10-31T10:58:46;17.52;;;7.78;;
60917;SDS011;46792;38.854;-9.384;2023-10-31T11:00:53;19.25;;;8.77;;
60917;SDS011;46792;38.854;-9.384;2023-10-31T11:02:56;31.25;;;7.05;;
60917;SDS011;46792;38.854;-9.384;2023-10-31T11:04:57;21.48;;;7.50;;
60917;SDS011;46792;38.854;-9.384;2023-10-31T11:07:00;14.65;;;6.50;;
60917;SDS011;46792;38.854;-9.384;2023-10-31T11:09:02;21.27;;;7.35;;
60917;SDS011;46792;38.854;-9.384;2023-10-31T11:11:04;25.55;;;7.47;;
60917;SDS011;46792;38.854;-9.384;2023-10-31T11:13:05;19.52;;;5.72;;
60917;SDS011;46792;38.854;-9.384;2023-10-31T11:15:08;59.60;;;24.92;;
60917;SDS011;46792;38.854;-9.384;2023-10-31T11:17:19;25.70;;;12.18;;
60917;SDS011;46792;38.854;-9.384;2023-10-31T11:19:27;34.25;;;16.80;;
60917;SDS011;46792;38.854;-9.384;2023-10-31T11:21:30;20.80;;;8.98;;
60917;SDS011;46792;38.854;-9.384;2023-10-31T11:23:31;25.98;;;9.82;;
60917;SDS011;46792;38.854;-9.384;2023-10-31T11:25:32;26.23;;;9.15;;
60917;SDS011;46792;38.854;-9.384;2023-10-31T11:27:36;115.03;;;54.58;;
60917;SDS011;46792;38.854;-9.384;2023-10-31T11:29:37;47.50;;;26.60;;
60917;SDS011;46792;38.854;-9.384;2023-10-31T11:34:59;59.25;;;31.20;;
60917;SDS011;46792;38.854;-9.384;2023-10-31T11:37:19;15.68;;;6.28;;
60917;SDS011;46792;38.854;-9.384;2023-10-31T11:39:23;25.15;;;9.32;;
60917;SDS011;46792;38.854;-9.384;2023-10-31T11:41:26;22.33;;;6.95;;
60917;SDS011;46792;38.854;-9.384;2023-10-31T11:43:37;32.08;;;15.05;;
60917;SDS011;46792;38.854;-9.384;2023-10-31T11:45:51;33.55;;;15.68;;
60917;SDS011;46792;38.854;-9.384;2023-10-31T11:47:52;70.38;;;41.70;;
60917;SDS011;46792;38.854;-9.384;2023-10-31T11:49:53;45.20;;;25.05;;
60917;SDS011;46792;38.854;-9.384;2023-10-31T11:51:53;14.15;;;4.70;;
60917;SDS011;46792;38.854;-9.384;2023-10-31T11:53:55;12.07;;;5.90;;
60917;SDS011;46792;38.854;-9.384;2023-10-31T11:55:56;19.50;;;5.70;;
60917;SDS011;46792;38.854;-9.384;2023-10-31T11:57:57;15.35;;;7.47;;
60917;SDS011;46792;38.854;-9.384;2023-10-31T11:59:58;19.90;;;6.28;;